^^
Station Historical Data
Daily Summary for January 6, 2018 Units:  English    Metric   Both
« Previous Day
Next Day »
Daily Weekly Monthly Yearly Custom
  High: Low: Average:
Temperature: TemperatureF °F 77.9 °F 81.7 °F
Dew Point: DewpointF °F 38.8 °F 41.2 °F
Humidity: Humidity% 20% 23%
Wind Speed: WindSpeedMPHmph -999.9mph -45.3mph
Wind Gust: WindSpeedGustMPHmph - -
Wind- -
Pressure: PressureIn in 30.04 in -
Precipitation: 0.00 in    
Historical Graphs
 
 
Tabular Data for January 6, 2018
Time Temperature Dew Point Pressure Wind Wind Speed Wind Gust Humidity Rainfall Rate (Hourly) solar Conditions
TemperatureF °F DewpointF °F PressureIn in Calm     Humidity% HourlyPrecipIn in SoftwareType W/m2 Conditions
08:58 78.1 °F 43.2 °F 30.16 in NE 4.0 mph 5.0 mph 29% 0.00 in meteobridge W/m2
09:04 78.1 °F 44.1 °F 30.16 in NNE 0.9 mph 5.0 mph 30% 0.00 in meteobridge W/m2
09:11 77.9 °F 42.3 °F 30.16 in NE 4.9 mph 10.0 mph 28% 0.00 in meteobridge W/m2
09:17 77.9 °F 43.2 °F 30.16 in North 2.9 mph 15.0 mph 29% 0.00 in meteobridge W/m2
09:23 78.6 °F 42.8 °F 30.16 in NE 6.0 mph 9.0 mph 28% 0.00 in meteobridge W/m2
09:29 78.6 °F 42.8 °F 30.16 in NE 4.0 mph 7.0 mph 28% 0.00 in meteobridge W/m2
09:35 79.0 °F 43.2 °F 30.16 in NE 4.0 mph 6.0 mph 28% 0.00 in meteobridge W/m2
09:41 79.7 °F 43.7 °F 30.16 in East 0.9 mph 4.0 mph 28% 0.00 in meteobridge W/m2
09:50 80.4 °F 42.4 °F 30.16 in SSW 2.9 mph 9.0 mph 26% 0.00 in meteobridge W/m2
10:00 81.7 °F 43.5 °F 30.16 in Calm   3.0 mph 26% 0.00 in meteobridge W/m2
10:06 82.9 °F 43.5 °F 30.17 in NE 6.0 mph 10.0 mph 25% 0.00 in meteobridge W/m2
10:12 82.6 °F 42.1 °F 30.16 in NNE 6.0 mph 14.0 mph 24% 0.00 in meteobridge W/m2
10:18 81.5 °F 42.3 °F 30.17 in South 2.9 mph 5.0 mph 25% 0.00 in meteobridge W/m2
10:26 80.1 °F 42.1 °F 30.17 in SSW 4.9 mph 12.0 mph 26% 0.00 in meteobridge W/m2
10:34 81.1 °F 43.0 °F 30.16 in WSW 4.0 mph 6.0 mph 26% 0.00 in meteobridge W/m2
10:40 82.8 °F 43.3 °F 30.16 in NNE 10.1 mph 11.0 mph 25% 0.00 in meteobridge W/m2
10:47 82.8 °F 42.3 °F 30.16 in NNE 15.0 mph 18.0 mph 24% 0.00 in meteobridge W/m2
10:53 81.5 °F 41.2 °F 30.16 in North 16.1 mph 23.0 mph 24% 0.00 in meteobridge W/m2
10:59 80.6 °F 41.5 °F 30.16 in NE 8.1 mph 14.0 mph 25% 0.00 in meteobridge W/m2
11:07 82.2 °F 41.9 °F 30.16 in SE 2.0 mph 5.0 mph 24% 0.00 in meteobridge W/m2
11:13 83.7 °F 43.0 °F 30.16 in South 8.9 mph 15.0 mph 24% 0.00 in meteobridge W/m2
11:21 82.0 °F 41.7 °F 30.16 in SSW 2.0 mph 11.0 mph 24% 0.00 in meteobridge W/m2
11:27 83.5 °F 43.0 °F 30.16 in ESE 2.9 mph 4.0 mph 24% 0.00 in meteobridge W/m2
11:34 83.8 °F 42.1 °F 30.16 in North 14.1 mph 14.1 mph 23% 0.00 in meteobridge W/m2
11:40 82.4 °F 41.9 °F 30.16 in NNE 6.0 mph 19.0 mph 24% 0.00 in meteobridge W/m2
11:46 81.3 °F 41.0 °F 30.15 in ENE 2.0 mph 7.0 mph 24% 0.00 in meteobridge W/m2
11:52 83.3 °F 41.7 °F 30.15 in Calm   4.0 mph 23% 0.00 in meteobridge W/m2
11:58 84.0 °F 42.3 °F 30.14 in SE 2.9 mph 4.0 mph 23% 0.00 in meteobridge W/m2
12:04 85.1 °F 43.2 °F 30.14 in ENE 4.0 mph 4.0 mph 23% 0.00 in meteobridge W/m2
12:12 85.8 °F 42.6 °F 30.13 in SW 0.9 mph 2.0 mph 22% 0.00 in meteobridge W/m2
12:20 83.3 °F 41.7 °F 30.13 in East 0.9 mph 6.0 mph 23% 0.00 in meteobridge W/m2
12:27 82.6 °F 41.0 °F 30.13 in NW 2.0 mph 5.0 mph 23% 0.00 in meteobridge W/m2
12:33 82.6 °F 41.0 °F 30.13 in SSE 4.9 mph 5.0 mph 23% 0.00 in meteobridge W/m2
12:39 84.4 °F 42.6 °F 30.13 in SE 2.9 mph 10.0 mph 23% 0.00 in meteobridge W/m2
12:45 84.4 °F 41.4 °F 30.12 in East 2.9 mph 5.0 mph 22% 0.00 in meteobridge W/m2
12:53 82.6 °F 41.0 °F 30.12 in NNE 14.1 mph 18.0 mph 23% 0.00 in meteobridge W/m2
12:59 81.3 °F 39.9 °F 30.12 in North 2.9 mph 11.0 mph 23% 0.00 in meteobridge W/m2
13:05 81.5 °F 41.2 °F 30.11 in NE 2.9 mph 5.0 mph 24% 0.00 in meteobridge W/m2
13:13 81.7 °F 40.3 °F 30.12 in North 6.9 mph 14.0 mph 23% 0.00 in meteobridge W/m2
13:20 81.3 °F 39.9 °F 30.11 in North 10.1 mph 16.0 mph 23% 0.00 in meteobridge W/m2
13:26 81.0 °F 40.8 °F 30.11 in North 4.9 mph 9.0 mph 24% 0.00 in meteobridge W/m2
13:38 81.9 °F 40.5 °F 30.11 in NNE 2.9 mph 3.0 mph 23% 0.00 in meteobridge W/m2
13:44 82.8 °F 41.2 °F 30.11 in NNE 0.9 mph 2.0 mph 23% 0.00 in meteobridge W/m2
13:50 83.3 °F 41.7 °F 30.11 in East 2.9 mph 4.0 mph 23% 0.00 in meteobridge W/m2
13:56 82.9 °F 41.4 °F 30.11 in NE 8.1 mph 11.0 mph 23% 0.00 in meteobridge W/m2
14:02 82.0 °F 40.6 °F 30.11 in NNE 10.1 mph 10.1 mph 23% 0.00 in meteobridge W/m2
14:08 81.7 °F 40.3 °F 30.11 in NNE 4.9 mph 9.0 mph 23% 0.00 in meteobridge W/m2
14:15 81.9 °F 40.5 °F 30.11 in NNW 4.0 mph 9.0 mph 23% 0.00 in meteobridge W/m2
14:21 82.0 °F 40.6 °F 30.10 in North 6.9 mph 9.0 mph 23% 0.00 in meteobridge W/m2
14:29 82.6 °F 41.0 °F 30.10 in North 6.0 mph 10.0 mph 23% 0.00 in meteobridge W/m2
14:35 82.4 °F 40.8 °F 30.10 in NNE 0.9 mph 3.0 mph 23% 0.00 in meteobridge W/m2
14:43 83.3 °F 40.5 °F 30.10 in SE 0.9 mph 3.0 mph 22% 0.00 in meteobridge W/m2
14:49 84.0 °F 41.0 °F 30.09 in Calm   1.0 mph 22% 0.00 in meteobridge W/m2
14:56 84.4 °F 41.4 °F 30.09 in WSW 0.9 mph 2.0 mph 22% 0.00 in meteobridge W/m2
15:02 84.2 °F 41.2 °F 30.09 in North 0.9 mph 4.0 mph 22% 0.00 in meteobridge W/m2
15:08 84.7 °F 41.7 °F 30.09 in SE 4.0 mph 4.0 mph 22% 0.00 in meteobridge W/m2
15:14 85.8 °F 41.4 °F 30.08 in NE 2.0 mph 5.0 mph 21% 0.00 in meteobridge W/m2
15:20 88.0 °F 41.9 °F 30.08 in NE 4.0 mph 6.0 mph 20% 0.00 in meteobridge W/m2
15:27 87.1 °F 42.4 °F 30.08 in NNE 2.0 mph 6.0 mph 21% 0.00 in meteobridge W/m2
15:33 86.5 °F 41.9 °F 30.07 in ESE 0.9 mph 9.0 mph 21% 0.00 in meteobridge W/m2
15:39 85.8 °F 41.4 °F 30.07 in NNE 11.0 mph 12.0 mph 21% 0.00 in meteobridge W/m2
15:47 83.8 °F 41.0 °F 30.07 in ENE 0.9 mph 7.0 mph 22% 0.00 in meteobridge W/m2
15:53 83.8 °F 39.7 °F 30.07 in North 4.9 mph 9.0 mph 21% 0.00 in meteobridge W/m2
15:59 83.8 °F 41.0 °F 30.06 in NNE 6.0 mph 6.0 mph 22% 0.00 in meteobridge W/m2
16:06 84.6 °F 40.3 °F 30.06 in NNE 8.9 mph 11.0 mph 21% 0.00 in meteobridge W/m2
16:14 83.5 °F 40.6 °F 30.06 in NNE 4.0 mph 6.0 mph 22% 0.00 in meteobridge W/m2
16:20 83.7 °F 40.8 °F 30.06 in NE 2.9 mph 7.0 mph 22% 0.00 in meteobridge W/m2
16:31 84.6 °F 41.5 °F 30.06 in NNE 2.9 mph 6.0 mph 22% 0.00 in meteobridge W/m2
16:36 84.7 °F 40.5 °F 30.06 in North 4.0 mph 10.0 mph 21% 0.00 in meteobridge W/m2
16:42 84.4 °F 41.4 °F 30.06 in NNW 8.9 mph 12.0 mph 22% 0.00 in meteobridge W/m2
16:46 84.0 °F 39.9 °F 30.06 in NNE 4.9 mph 9.0 mph 21% 0.00 in meteobridge W/m2
16:48 84.0 °F 41.0 °F 30.06 in NNE 4.0 mph 9.0 mph 22% 0.00 in meteobridge W/m2
16:57 84.2 °F 41.2 °F 30.05 in Calm   2.0 mph 22% 0.00 in meteobridge W/m2
17:03 84.4 °F 40.1 °F 30.05 in NNE 4.0 mph 6.0 mph 21% 0.00 in meteobridge W/m2
17:11 84.2 °F 41.2 °F 30.05 in NNE 2.0 mph 5.0 mph 22% 0.00 in meteobridge W/m2
17:17 83.8 °F 39.7 °F 30.05 in NNE 2.9 mph 5.0 mph 21% 0.00 in meteobridge W/m2
17:25 83.8 °F 41.0 °F 30.05 in NNE 4.9 mph 6.0 mph 22% 0.00 in meteobridge W/m2
17:31 84.2 °F 40.1 °F 30.04 in NE 4.0 mph 11.0 mph 21% 0.00 in meteobridge W/m2
17:39 84.4 °F 40.1 °F 30.04 in NNE 8.9 mph 10.0 mph 21% 0.00 in meteobridge W/m2
17:47 83.8 °F 39.7 °F 30.05 in NNE 2.9 mph 4.0 mph 21% 0.00 in meteobridge W/m2
17:54 84.0 °F 39.9 °F 30.04 in Calm   1.0 mph 21% 0.00 in meteobridge W/m2
18:00 84.2 °F 40.1 °F 30.04 in North 4.0 mph 11.0 mph 21% 0.00 in meteobridge W/m2
18:06 83.7 °F 39.6 °F 30.05 in North 2.0 mph 2.0 mph 21% 0.00 in meteobridge W/m2
18:12 83.7 °F 39.6 °F 30.05 in NNE 4.0 mph 11.0 mph 21% 0.00 in meteobridge W/m2
18:20 82.9 °F 39.0 °F 30.05 in NNE 8.9 mph 10.0 mph 21% 0.00 in meteobridge W/m2
18:26 82.8 °F 38.8 °F 30.05 in NNE 2.0 mph 9.0 mph 21% 0.00 in meteobridge W/m2
18:34 82.8 °F 38.8 °F 30.05 in NE 2.0 mph 7.0 mph 21% 0.00 in meteobridge W/m2
18:40 82.8 °F 38.8 °F 30.06 in NE 4.0 mph 6.0 mph 21% 0.00 in meteobridge W/m2
18:49 82.8 °F 38.8 °F 30.06 in Calm   5.0 mph 21% 0.00 in meteobridge W/m2
18:59 82.6 °F 39.9 °F 30.06 in Calm   2.0 mph 22% 0.00 in meteobridge W/m2
19:05 82.2 °F 41.9 °F 30.06 in SSW 8.1 mph 12.0 mph 24% 0.00 in meteobridge W/m2
19:11 80.4 °F 45.3 °F 30.06 in South 8.9 mph 14.0 mph 29% 0.00 in meteobridge W/m2
19:17 79.9 °F 44.8 °F 30.06 in South 10.1 mph 15.0 mph 29% 0.00 in meteobridge W/m2
19:24 79.5 °F 44.4 °F 30.06 in SSE 6.0 mph 6.0 mph 29% 0.00 in meteobridge W/m2
19:30 79.5 °F 44.4 °F 30.07 in SSE 6.0 mph -999.0 mph 29% 0.00 in meteobridge W/m2
19:36 79.5 °F 44.4 °F 30.06 in North -999.9 mph -999.0 mph 29% 0.00 in meteobridge W/m2
19:45 79.5 °F 44.4 °F 30.07 in North -999.9 mph -999.0 mph 29% 0.00 in meteobridge W/m2
19:53 79.5 °F 44.4 °F 30.08 in North -999.9 mph -999.0 mph 29% 0.00 in meteobridge W/m2
20:00 79.5 °F 44.4 °F 30.07 in North -999.9 mph -999.0 mph 29% 0.00 in meteobridge W/m2
20:05 79.5 °F 44.4 °F 30.07 in North -999.9 mph -999.0 mph 29% 0.00 in meteobridge W/m2
Regenstein, Windhoek, Namibia
Compliments of Weather Underground - 2.5 mb